Time;durP1;ratioP1;P1;durP2;ratioP2;P2;SDS_P1;SDS_P2;PMS_P1;PMS_P2;Temp;Humidity;BMP_temperature;BMP_pressure;BME280_temperature;BME280_humidity;BME280_pressure;Samples;Min_cycle;Max_cycle;Signal;HPM_P1;HPM_P2
2022/01/16 00:04:24;;;;;;;40.58;16.58;;;;;;;3.95;100.00;101946.06;5064458;28;20663;-71
2022/01/16 00:06:51;;;;;;;42.15;18.45;;;;;;;4.00;100.00;101948.63;5073069;28;20075;-71
2022/01/16 00:09:17;;;;;;;44.60;18.13;;;;;;;4.00;100.00;101951.38;5060766;28;20820;-70
2022/01/16 00:11:44;;;;;;;38.30;16.52;;;;;;;3.95;100.00;101951.56;5075355;28;20130;-71
2022/01/16 00:14:11;;;;;;;23.42;10.02;;;;;;;3.91;100.00;101943.16;5082096;28;20054;-71
2022/01/16 00:16:41;;;;;;;22.48;8.35;;;;;;;3.84;100.00;101953.78;5075735;28;20569;-70
2022/01/16 00:19:08;;;;;;;16.55;6.97;;;;;;;3.89;100.00;101923.53;5071693;28;20060;-71
2022/01/16 00:21:39;;;;;;;30.92;12.20;;;;;;;3.92;100.00;101935.75;5074126;28;20074;-70
2022/01/16 00:24:07;;;;;;;34.40;14.48;;;;;;;3.87;100.00;101939.47;5085008;28;20083;-71
2022/01/16 00:26:35;;;;;;;36.65;14.32;;;;;;;3.87;100.00;101941.38;5069831;28;20068;-71
2022/01/16 00:29:04;;;;;;;35.45;14.55;;;;;;;3.87;100.00;101936.72;5074902;28;20044;-71
2022/01/16 00:31:30;;;;;;;33.33;13.45;;;;;;;3.68;100.00;101938.97;5087770;28;20044;-71
2022/01/16 00:33:57;;;;;;;33.80;12.75;;;;;;;3.66;100.00;101930.28;5073458;28;20779;-70
2022/01/16 00:36:23;;;;;;;31.83;13.15;;;;;;;3.73;100.00;101925.13;5079249;28;20049;-71
2022/01/16 00:38:53;;;;;;;18.35;8.13;;;;;;;3.69;100.00;101939.78;5074613;28;20523;-71
2022/01/16 00:41:20;;;;;;;17.83;8.15;;;;;;;3.67;100.00;101944.75;5071584;28;20059;-70
2022/01/16 00:43:48;;;;;;;34.60;15.40;;;;;;;3.68;100.00;101960.88;5073165;28;20106;-69
2022/01/16 00:46:16;;;;;;;32.53;13.95;;;;;;;3.70;100.00;101944.13;5068443;28;20135;-70
2022/01/16 00:48:43;;;;;;;20.35;8.25;;;;;;;3.63;100.00;101939.13;5075080;28;20051;-69
2022/01/16 00:51:10;;;;;;;32.05;12.07;;;;;;;3.67;100.00;101945.56;5073199;28;20048;-70
2022/01/16 00:53:39;;;;;;;41.85;17.60;;;;;;;3.70;100.00;101961.38;5078907;28;20500;-71
2022/01/16 00:56:06;;;;;;;22.42;9.40;;;;;;;3.58;100.00;101942.03;5074424;28;20544;-70
2022/01/16 00:58:33;;;;;;;13.48;5.70;;;;;;;3.61;100.00;101946.84;5072972;28;20090;-69
2022/01/16 01:00:59;;;;;;;23.58;11.40;;;;;;;3.60;100.00;101936.22;5069599;28;20044;-70
2022/01/16 01:03:26;;;;;;;12.15;6.28;;;;;;;3.55;100.00;101931.75;5070812;28;20455;-71
2022/01/16 01:05:53;;;;;;;20.13;7.55;;;;;;;3.57;100.00;101904.03;5068960;28;20052;-70
2022/01/16 01:08:20;;;;;;;19.02;7.88;;;;;;;3.50;100.00;101945.56;5070466;28;20525;-70
2022/01/16 01:10:49;;;;;;;21.13;9.50;;;;;;;3.54;100.00;101941.06;5067488;28;20048;-70
2022/01/16 01:13:30;;;;;;;24.00;9.20;;;;;;;3.51;100.00;101958.13;5069683;28;20066;-70
2022/01/16 01:16:03;;;;;;;18.83;8.50;;;;;;;3.49;100.00;101943.97;5072237;28;20495;-70
2022/01/16 01:18:33;;;;;;;26.25;10.77;;;;;;;3.53;100.00;101963.28;5085383;28;20250;-70
2022/01/16 01:21:02;;;;;;;34.58;14.32;;;;;;;3.56;100.00;101965.38;5086414;28;20067;-72
2022/01/16 01:23:30;;;;;;;30.80;13.52;;;;;;;3.44;100.00;101968.72;5085699;28;20056;-71
2022/01/16 01:25:56;;;;;;;17.90;7.68;;;;;;;3.50;100.00;101974.84;5083169;28;20074;-71
2022/01/16 01:28:23;;;;;;;20.75;9.15;;;;;;;3.39;100.00;101993.50;5069284;28;20148;-70
2022/01/16 01:30:50;;;;;;;39.10;15.80;;;;;;;3.42;100.00;101992.88;5069816;28;20052;-70
2022/01/16 01:33:19;;;;;;;35.10;14.77;;;;;;;3.37;100.00;101989.50;5069329;28;20538;-70
2022/01/16 01:35:47;;;;;;;18.33;8.35;;;;;;;3.38;100.00;101975.50;5078365;28;20548;-71
2022/01/16 01:38:18;;;;;;;17.75;6.85;;;;;;;3.35;100.00;101937.84;5066848;28;20048;-69
2022/01/16 01:40:49;;;;;;;17.65;6.53;;;;;;;3.34;100.00;101928.00;5068697;28;20049;-73
2022/01/16 01:51:26;;;;;;;28.05;11.70;;;;;;;3.29;100.00;101927.34;5070745;28;20617;-70
2022/01/16 01:53:56;;;;;;;25.80;10.85;;;;;;;3.30;100.00;101934.44;5069814;28;20555;-70
2022/01/16 01:56:24;;;;;;;50.50;20.30;;;;;;;3.39;100.00;101954.41;5061879;28;20106;-70
2022/01/16 01:58:53;;;;;;;12.77;4.80;;;;;;;3.34;100.00;101977.22;5067064;28;20171;-69
2022/01/16 02:01:21;;;;;;;22.42;8.20;;;;;;;3.35;100.00;101981.59;5066756;28;20044;-70
2022/01/16 02:03:48;;;;;;;29.05;13.00;;;;;;;3.33;100.00;101977.56;5074506;28;20060;-70
2022/01/16 02:06:22;;;;;;;29.85;10.40;;;;;;;3.30;100.00;101978.22;5069475;28;20059;-72
2022/01/16 02:08:55;;;;;;;28.55;14.85;;;;;;;3.29;100.00;101987.53;5068688;28;20153;-69
2022/01/16 02:11:26;;;;;;;21.00;9.77;;;;;;;3.29;100.00;101982.88;5068630;28;20136;-70
2022/01/16 02:14:02;;;;;;;22.38;11.40;;;;;;;3.33;100.00;101966.59;5074831;28;20052;-71
2022/01/16 02:28:17;;;;;;;22.70;11.88;;;;;;;3.29;100.00;101998.47;5067878;28;20067;-72
2022/01/16 02:36:26;;;;;;;18.10;8.52;;;;;;;3.36;100.00;101985.94;5068221;28;20048;-73
2022/01/16 02:39:13;;;;;;;29.23;15.88;;;;;;;3.33;100.00;101985.75;5065805;28;20118;-70
2022/01/16 02:41:43;;;;;;;42.13;18.65;;;;;;;3.36;100.00;101975.00;5067849;28;20409;-71
2022/01/16 02:44:23;;;;;;;42.63;19.30;;;;;;;3.27;100.00;101970.63;5068463;28;20052;-70
2022/01/16 02:46:54;;;;;;;32.45;12.60;;;;;;;3.39;100.00;101968.91;5067964;28;20078;-71
2022/01/16 02:49:22;;;;;;;32.42;14.13;;;;;;;3.41;100.00;101960.38;5068137;28;20052;-71
2022/01/16 02:51:51;;;;;;;32.38;13.65;;;;;;;3.34;100.00;101941.66;5068234;28;20056;-71
2022/01/16 02:54:18;;;;;;;29.58;12.82;;;;;;;3.38;100.00;101959.09;5065461;28;20052;-70
2022/01/16 02:56:45;;;;;;;20.73;9.88;;;;;;;3.38;100.00;101952.78;5068523;28;20056;-71
2022/01/16 02:59:12;;;;;;;49.70;20.17;;;;;;;3.46;100.00;101944.59;5068250;28;20048;-71
2022/01/16 03:01:39;;;;;;;39.47;15.63;;;;;;;3.37;100.00;101940.25;5067207;28;20141;-71
2022/01/16 03:04:07;;;;;;;42.38;18.00;;;;;;;3.48;100.00;101925.91;5080155;28;20048;-71
2022/01/16 03:06:34;;;;;;;20.08;8.57;;;;;;;3.41;100.00;101920.13;5066277;28;20122;-70
2022/01/16 03:09:02;;;;;;;52.70;23.52;;;;;;;3.52;100.00;101915.16;5066797;28;20098;-70
2022/01/16 03:11:45;;;;;;;;;;;;;;;;;;;;;
2022/01/16 03:14:05;;;;;;;21.65;11.07;;;;;;;3.45;100.00;101921.09;5067476;28;20572;-71
2022/01/16 03:16:32;;;;;;;30.13;11.63;;;;;;;3.44;100.00;101916.75;5068077;28;20083;-72
2022/01/16 03:21:54;;;;;;;29.33;10.25;;;;;;;3.50;100.00;101901.78;5068224;28;20076;-71
2022/01/16 03:24:24;;;;;;;41.15;16.98;;;;;;;3.55;100.00;101893.44;5065692;28;20139;-70
2022/01/16 03:26:56;;;;;;;14.93;6.45;;;;;;;3.50;100.00;101898.22;5066465;28;20493;-70
2022/01/16 03:29:25;;;;;;;41.60;17.60;;;;;;;3.52;100.00;101894.06;5067118;28;20083;-70
2022/01/16 03:31:52;;;;;;;29.05;12.82;;;;;;;3.50;100.00;101885.38;5066844;28;20036;-71
2022/01/16 03:34:18;;;;;;;17.13;7.93;;;;;;;3.50;100.00;101888.09;5068461;28;20137;-71
2022/01/16 03:36:45;;;;;;;17.02;8.52;;;;;;;3.54;100.00;101891.78;5076422;28;20056;-71
2022/01/16 03:39:12;;;;;;;19.98;8.48;;;;;;;3.61;100.00;101885.84;5067813;28;20102;-71
2022/01/16 03:41:39;;;;;;;17.27;7.75;;;;;;;3.55;100.00;101898.09;5067083;28;20080;-71
2022/01/16 03:44:07;;;;;;;31.52;13.27;;;;;;;3.56;100.00;101895.03;5066930;28;20580;-71
2022/01/16 03:46:39;;;;;;;30.55;12.93;;;;;;;3.60;100.00;101885.03;5066296;28;20076;-71
2022/01/16 03:49:12;;;;;;;19.42;10.25;;;;;;;3.60;100.00;101892.44;5065118;28;20059;-71
2022/01/16 03:51:39;;;;;;;44.65;16.55;;;;;;;3.63;100.00;101891.78;5064535;28;20055;-70
2022/01/16 03:54:08;;;;;;;17.98;8.30;;;;;;;3.62;100.00;101895.66;5067472;28;20139;-73
2022/01/16 03:56:36;;;;;;;41.10;17.05;;;;;;;3.62;100.00;101898.41;5067625;28;20044;-70
2022/01/16 03:59:03;;;;;;;39.78;16.77;;;;;;;3.63;100.00;101892.59;5053835;28;20564;-71
2022/01/16 04:01:30;;;;;;;57.70;26.90;;;;;;;3.55;100.00;101903.56;5065592;28;20131;-71
2022/01/16 04:03:58;;;;;;;37.65;13.55;;;;;;;3.71;100.00;101891.78;5079769;28;20055;-71
2022/01/16 04:06:25;;;;;;;53.75;23.08;;;;;;;3.68;100.00;101888.91;5067787;28;20147;-71
2022/01/16 04:08:53;;;;;;;51.45;23.85;;;;;;;3.60;100.00;101906.94;5067172;28;20760;-70
2022/01/16 04:11:21;;;;;;;58.85;28.98;;;;;;;3.62;100.00;101917.56;5067895;28;20083;-72
2022/01/16 04:13:51;;;;;;;41.72;19.58;;;;;;;3.68;100.00;101919.03;5066981;28;20045;-72
2022/01/16 04:16:22;;;;;;;41.40;19.15;;;;;;;3.72;100.00;101909.84;5067406;28;20102;-70
2022/01/16 04:18:51;;;;;;;43.85;18.95;;;;;;;3.71;100.00;101910.16;5068217;28;20110;-71
2022/01/16 04:21:19;;;;;;;35.00;15.20;;;;;;;3.68;100.00;101903.38;5082544;28;20080;-71
2022/01/16 04:23:46;;;;;;;20.77;10.18;;;;;;;3.71;100.00;101902.75;5066950;28;20052;-71
2022/01/16 04:26:13;;;;;;;70.20;30.45;;;;;;;3.79;100.00;101912.91;5067663;28;20101;-71
2022/01/16 04:28:41;;;;;;;55.17;26.75;;;;;;;3.62;100.00;101917.56;5067774;28;20059;-71
2022/01/16 04:31:08;;;;;;;28.67;12.85;;;;;;;3.74;100.00;101921.25;5066590;28;20136;-71
2022/01/16 04:33:35;;;;;;;45.67;22.05;;;;;;;3.67;100.00;101928.34;5066925;28;20049;-70
2022/01/16 04:36:03;;;;;;;67.38;29.15;;;;;;;3.74;100.00;101924.00;5078261;28;20048;-70
2022/01/16 04:38:30;;;;;;;39.42;17.77;;;;;;;3.69;100.00;101921.44;5071186;28;20131;-70
2022/01/16 04:43:47;;;;;;;56.58;27.08;;;;;;;3.61;100.00;101938.66;5070237;28;20128;-70
2022/01/16 04:46:15;;;;;;;49.53;20.08;;;;;;;3.61;100.00;101943.34;5070217;28;20472;-70
2022/01/16 04:48:43;;;;;;;34.90;14.23;;;;;;;3.68;100.00;101938.19;5069220;28;20570;-71
2022/01/16 04:51:10;;;;;;;39.47;19.55;;;;;;;3.67;100.00;101929.16;5068688;28;20505;-69
2022/01/16 04:53:37;;;;;;;46.70;22.52;;;;;;;3.62;100.00;101926.59;5070833;28;20056;-71
2022/01/16 04:56:05;;;;;;;53.08;26.08;;;;;;;3.63;100.00;101936.41;5070892;28;20477;-73
2022/01/16 04:58:33;;;;;;;62.88;24.67;;;;;;;3.68;100.00;101936.22;5068625;28;20064;-71
2022/01/16 05:01:00;;;;;;;39.88;19.15;;;;;;;3.64;100.00;101932.53;5070074;28;20139;-71
2022/01/16 05:03:28;;;;;;;46.97;19.88;;;;;;;3.58;100.00;101931.06;5082327;28;20051;-70
2022/01/16 05:05:55;;;;;;;43.58;20.80;;;;;;;3.64;100.00;101920.78;5070866;28;20091;-71
2022/01/16 05:08:22;;;;;;;47.67;20.20;;;;;;;3.60;100.00;101906.94;5068920;28;20063;-73
2022/01/16 05:10:55;;;;;;;19.05;10.45;;;;;;;3.60;100.00;101912.41;5070071;28;20060;-71
2022/01/16 05:18:37;;;;;;;42.60;19.65;;;;;;;3.58;100.00;101911.91;5069714;28;20678;-71
2022/01/16 05:21:04;;;;;;;43.95;17.77;;;;;;;3.62;100.00;101904.69;5069376;28;20059;-73
2022/01/16 05:23:30;;;;;;;30.90;15.00;;;;;;;3.58;100.00;101903.72;5070414;28;20055;-71
2022/01/16 05:25:59;;;;;;;47.35;20.83;;;;;;;3.65;100.00;101909.50;5070250;28;20131;-71
2022/01/16 05:28:26;;;;;;;55.92;23.08;;;;;;;3.58;100.00;101902.91;5069775;28;20066;-70
2022/01/16 05:30:53;;;;;;;37.13;16.50;;;;;;;3.55;100.00;101898.09;5068857;28;20357;-72
2022/01/16 05:33:20;;;;;;;54.38;23.80;;;;;;;3.51;100.00;101917.06;5068315;28;20048;-72
2022/01/16 05:35:47;;;;;;;45.95;19.23;;;;;;;3.50;100.00;101912.72;5079453;28;20106;-71
2022/01/16 05:38:13;;;;;;;40.42;19.65;;;;;;;3.52;100.00;101915.16;5070120;28;20108;-72
2022/01/16 05:40:40;;;;;;;72.22;30.30;;;;;;;3.43;100.00;101911.59;5066038;28;20056;-71
2022/01/16 05:43:07;;;;;;;50.88;22.23;;;;;;;3.46;100.00;101908.22;5069751;28;20048;-71
2022/01/16 05:45:33;;;;;;;48.80;20.15;;;;;;;3.49;100.00;101913.03;5069746;28;20062;-71
2022/01/16 05:48:00;;;;;;;93.32;37.17;;;;;;;3.54;100.00;101908.22;5060975;28;20056;-69
2022/01/16 05:50:28;;;;;;;70.80;25.13;;;;;;;3.52;100.00;101915.16;5066890;28;20086;-70
2022/01/16 05:52:54;;;;;;;62.08;22.58;;;;;;;3.45;100.00;101914.81;5069175;28;20040;-72
2022/01/16 05:55:21;;;;;;;34.97;11.68;;;;;;;3.42;100.00;101920.94;5068615;28;20057;-71
2022/01/16 05:57:47;;;;;;;26.48;12.52;;;;;;;3.39;100.00;101916.09;5070279;28;20135;-70
2022/01/16 06:00:15;;;;;;;41.15;14.25;;;;;;;3.46;100.00;101917.25;5069465;28;20052;-71
2022/01/16 06:02:41;;;;;;;47.25;18.17;;;;;;;3.37;100.00;101907.41;5078082;28;20048;-70
2022/01/16 06:05:08;;;;;;;58.38;21.25;;;;;;;3.42;100.00;101899.84;5072897;28;20114;-71
2022/01/16 06:07:35;;;;;;;71.65;29.35;;;;;;;3.37;100.00;101896.47;5061363;28;20053;-71
2022/01/16 06:10:03;;;;;;;48.88;20.90;;;;;;;3.36;100.00;101895.66;5065235;28;20053;-71
2022/01/16 06:12:29;;;;;;;80.05;30.05;;;;;;;3.46;100.00;101895.34;5069001;28;20050;-71
2022/01/16 06:14:56;;;;;;;39.88;19.70;;;;;;;3.39;100.00;101886.81;5067291;28;20175;-70
2022/01/16 06:17:22;;;;;;;41.95;14.05;;;;;;;3.40;100.00;101893.06;5068363;28;20048;-71
2022/01/16 06:19:49;;;;;;;55.92;20.75;;;;;;;3.50;100.00;101890.03;5067571;28;20078;-72
2022/01/16 06:22:15;;;;;;;29.73;11.45;;;;;;;3.29;100.00;101867.16;5067072;28;20105;-71
2022/01/16 06:24:42;;;;;;;33.90;13.55;;;;;;;3.46;100.00;101884.41;5068519;28;20135;-71
2022/01/16 06:27:09;;;;;;;60.53;23.45;;;;;;;3.48;100.00;101901.28;5068514;28;20466;-73
2022/01/16 06:29:35;;;;;;;28.58;12.77;;;;;;;3.45;100.00;101888.28;5067606;28;20155;-71
2022/01/16 06:32:02;;;;;;;70.72;28.55;;;;;;;3.52;100.00;101888.59;5067303;28;20083;-71
2022/01/16 06:34:28;;;;;;;102.20;37.33;;;;;;;3.56;100.00;101888.75;5069250;28;20151;-70
2022/01/16 06:36:55;;;;;;;28.60;11.90;;;;;;;3.58;100.00;101897.44;5069350;28;20056;-69
2022/01/16 06:39:29;;;;;;;82.50;32.72;;;;;;;3.52;100.00;101904.19;5083266;28;20055;-71
2022/01/16 06:41:56;;;;;;;85.75;34.83;;;;;;;3.55;100.00;101903.56;5067887;28;20143;-71
2022/01/16 06:44:39;;;;;;;74.07;28.45;;;;;;;3.57;100.00;101902.09;5064403;28;20048;-71
2022/01/16 06:47:06;;;;;;;31.25;12.77;;;;;;;3.67;100.00;101903.72;5067823;28;20062;-71
2022/01/16 06:49:32;;;;;;;45.13;19.90;;;;;;;3.64;100.00;101899.69;5067677;28;20078;-70
2022/01/16 06:51:59;;;;;;;54.75;24.23;;;;;;;3.65;100.00;101898.56;5067637;28;20062;-72
2022/01/16 06:54:26;;;;;;;35.45;19.85;;;;;;;3.72;100.00;101903.56;5068133;28;20062;-73
2022/01/16 06:56:52;;;;;;;37.17;15.75;;;;;;;3.73;100.00;101916.94;5080172;28;20131;-71
2022/01/16 06:59:19;;;;;;;55.58;26.85;;;;;;;3.72;100.00;101920.78;5065993;28;20059;-71
2022/01/16 07:01:48;;;;;;;48.15;22.05;;;;;;;3.77;100.00;101923.34;5069091;28;20556;-70
2022/01/16 07:04:15;;;;;;;79.97;30.00;;;;;;;3.74;100.00;101932.22;5076412;28;20048;-71
2022/01/16 07:06:42;;;;;;;58.70;25.17;;;;;;;3.80;100.00;101919.97;5067866;28;20515;-71
2022/01/16 07:09:08;;;;;;;71.35;25.55;;;;;;;3.80;100.00;101925.44;5066376;28;20062;-71
2022/01/16 07:11:35;;;;;;;60.63;25.10;;;;;;;3.85;100.00;101924.50;5065796;28;20052;-72
2022/01/16 07:14:02;;;;;;;58.78;26.98;;;;;;;3.88;100.00;101927.38;5066641;28;20052;-69
2022/01/16 07:16:28;;;;;;;51.05;21.45;;;;;;;3.90;100.00;101922.38;5067833;28;20058;-72
2022/01/16 07:18:55;;;;;;;38.40;18.50;;;;;;;3.94;100.00;101917.88;5067326;28;20056;-71
2022/01/16 07:21:22;;;;;;;36.40;16.45;;;;;;;3.95;100.00;101927.69;5066875;28;20062;-70
2022/01/16 07:23:53;;;;;;;69.00;31.25;;;;;;;3.95;100.00;101938.63;5066681;28;20067;-71
2022/01/16 07:26:20;;;;;;;92.43;46.90;;;;;;;3.93;100.00;101942.84;5067564;28;20056;-70
2022/01/16 07:28:47;;;;;;;75.10;32.55;;;;;;;3.99;100.00;101950.59;5066954;28;20131;-71
2022/01/16 07:31:13;;;;;;;75.70;35.60;;;;;;;4.10;100.00;101938.16;5066291;28;20074;-71
2022/01/16 07:33:40;;;;;;;57.42;25.75;;;;;;;4.09;100.00;101942.00;5067946;28;20550;-71
2022/01/16 07:36:06;;;;;;;74.05;33.67;;;;;;;4.01;100.00;101951.06;5073769;28;20048;-72
2022/01/16 07:38:33;;;;;;;43.03;19.85;;;;;;;4.10;100.00;101943.63;5075059;28;20057;-71
2022/01/16 07:41:00;;;;;;;74.57;34.25;;;;;;;4.11;100.00;101956.19;5065407;28;20501;-70
2022/01/16 07:43:26;;;;;;;73.55;31.60;;;;;;;4.10;100.00;101949.13;5066845;28;20655;-70
2022/01/16 07:45:53;;;;;;;19.38;10.52;;;;;;;4.18;100.00;101953.75;5067321;28;20112;-70
2022/01/16 07:48:20;;;;;;;84.60;41.80;;;;;;;4.12;100.00;101952.31;5068491;28;20072;-71
2022/01/16 07:50:46;;;;;;;51.90;24.63;;;;;;;4.18;100.00;101951.03;5068779;28;20058;-71
2022/01/16 07:53:13;;;;;;;59.55;27.45;;;;;;;4.21;100.00;101957.78;5068037;28;20044;-71
2022/01/16 07:55:39;;;;;;;68.90;34.03;;;;;;;4.18;100.00;101966.66;5068493;28;20467;-71
2022/01/16 07:58:06;;;;;;;88.47;41.13;;;;;;;4.16;100.00;101975.22;5070588;28;20080;-71
2022/01/16 08:00:33;;;;;;;55.15;23.90;;;;;;;4.26;100.00;101961.16;5069729;28;20139;-70
2022/01/16 08:03:00;;;;;;;82.20;42.42;;;;;;;4.22;100.00;101973.13;5079564;28;20120;-71
2022/01/16 08:05:28;;;;;;;79.80;37.20;;;;;;;4.25;100.00;101970.50;5067790;28;20098;-70
2022/01/16 08:07:55;;;;;;;70.80;35.50;;;;;;;4.38;100.00;101965.97;5082610;28;20074;-72
2022/01/16 08:10:21;;;;;;;85.18;36.47;;;;;;;4.28;100.00;101967.13;5066988;28;20086;-71
2022/01/16 08:12:48;;;;;;;66.82;31.58;;;;;;;4.43;100.00;101966.63;5069378;28;20048;-71
2022/01/16 08:15:14;;;;;;;85.13;40.50;;;;;;;4.32;100.00;101968.09;5072987;28;20640;-73
2022/01/16 08:17:41;;;;;;;31.00;16.27;;;;;;;4.43;100.00;101968.56;5069467;28;20053;-74
2022/01/16 08:20:09;;;;;;;78.90;34.97;;;;;;;4.35;100.00;101964.69;5070619;28;20541;-73
2022/01/16 08:22:36;;;;;;;71.13;34.83;;;;;;;4.35;100.00;101964.69;5072762;28;20049;-75
2022/01/16 08:25:05;;;;;;;54.72;24.75;;;;;;;4.47;100.00;101969.50;5070293;28;20060;-74
2022/01/16 08:27:32;;;;;;;21.90;9.93;;;;;;;4.54;100.00;101978.03;5082945;28;20071;-68
2022/01/16 08:30:04;;;;;;;52.17;23.75;;;;;;;4.52;100.00;101967.41;5071729;28;20080;-73
2022/01/16 08:32:32;;;;;;;82.13;38.88;;;;;;;4.59;100.00;101966.91;5071343;28;20071;-74
2022/01/16 08:34:59;;;;;;;54.70;25.42;;;;;;;4.51;100.00;101976.75;5073432;28;20087;-74
2022/01/16 08:37:26;;;;;;;58.08;24.60;;;;;;;4.48;100.00;101976.59;5072168;28;20048;-74
2022/01/16 08:39:54;;;;;;;74.03;31.63;;;;;;;4.51;100.00;101986.91;5072826;28;20130;-72
2022/01/16 08:42:20;;;;;;;63.63;29.90;;;;;;;4.58;100.00;101979.00;5072227;28;20144;-74
2022/01/16 08:44:49;;;;;;;67.28;29.38;;;;;;;4.48;100.00;101998.53;5071835;28;20094;-74
2022/01/16 08:47:17;;;;;;;54.75;20.23;;;;;;;4.59;100.00;101988.84;5066659;28;20056;-74
2022/01/16 08:49:44;;;;;;;76.00;39.15;;;;;;;4.50;100.00;101988.88;5072915;28;20056;-73
2022/01/16 08:52:10;;;;;;;50.20;21.83;;;;;;;4.63;100.00;101990.59;5059121;28;20048;-76
2022/01/16 08:54:37;;;;;;;55.13;23.65;;;;;;;4.61;100.00;101987.38;5071974;28;20040;-73
2022/01/16 08:57:04;;;;;;;44.67;23.38;;;;;;;4.60;100.00;101990.44;5072964;28;20111;-76
2022/01/16 08:59:31;;;;;;;68.07;32.75;;;;;;;4.66;100.00;101989.16;5073177;28;20226;-75
2022/01/16 09:01:58;;;;;;;40.55;17.88;;;;;;;4.69;100.00;101994.75;5073049;28;20421;-74
2022/01/16 09:04:25;;;;;;;48.90;22.15;;;;;;;4.73;100.00;102001.19;5072210;28;20040;-75
2022/01/16 09:06:51;;;;;;;39.63;21.73;;;;;;;4.73;100.00;102001.19;5072222;28;20040;-74
2022/01/16 09:09:18;;;;;;;61.53;30.55;;;;;;;4.81;100.00;102008.63;5072815;28;20052;-74
2022/01/16 09:11:45;;;;;;;61.95;28.88;;;;;;;4.80;100.00;102008.94;5071107;28;20791;-76
2022/01/16 09:14:12;;;;;;;48.47;23.02;;;;;;;4.89;100.00;102005.03;5071528;28;20641;-74
2022/01/16 09:16:38;;;;;;;44.17;21.25;;;;;;;4.82;100.00;102003.91;5070307;28;20722;-75
2022/01/16 09:19:05;;;;;;;46.85;23.02;;;;;;;4.94;100.00;102018.56;5075283;28;20049;-73
2022/01/16 09:21:31;;;;;;;13.20;7.47;;;;;;;4.91;100.00;102019.22;5072289;28;20147;-75
2022/01/16 09:23:58;;;;;;;68.03;30.83;;;;;;;4.86;100.00;102026.84;5071235;28;20125;-73
2022/01/16 09:26:26;;;;;;;42.95;21.10;;;;;;;5.02;100.00;102023.22;5072071;28;20151;-74
2022/01/16 09:28:56;;;;;;;43.33;20.95;;;;;;;4.94;100.00;102021.31;5071673;28;20059;-74
2022/01/16 09:31:22;;;;;;;60.20;28.15;;;;;;;4.94;100.00;102024.06;5071376;28;20079;-73
2022/01/16 09:33:49;;;;;;;30.42;15.07;;;;;;;5.05;100.00;102025.31;5071688;28;20470;-73
2022/01/16 09:36:16;;;;;;;37.05;19.23;;;;;;;5.09;100.00;102026.25;5073006;28;20476;-75
2022/01/16 09:38:43;;;;;;;69.93;34.80;;;;;;;5.19;100.00;102036.88;5061730;28;20137;-74
2022/01/16 09:41:09;;;;;;;51.90;26.70;;;;;;;5.21;100.00;102031.88;5064388;28;20131;-74
2022/01/16 09:43:37;;;;;;;75.10;35.75;;;;;;;5.24;100.00;102033.91;5066247;28;20052;-75
2022/01/16 09:46:05;;;;;;;36.70;16.55;;;;;;;5.24;100.00;102036.66;5073805;28;20183;-74
2022/01/16 09:48:31;;;;;;;78.47;37.03;;;;;;;5.33;100.00;102036.63;5058686;28;20404;-73
2022/01/16 09:50:58;;;;;;;43.92;22.23;;;;;;;5.33;100.00;102045.69;5057928;28;20059;-77
2022/01/16 09:53:25;;;;;;;58.33;26.13;;;;;;;5.28;100.00;102040.38;5064408;28;20136;-75
2022/01/16 09:55:52;;;;;;;33.50;16.60;;;;;;;5.40;100.00;102034.97;5071479;28;20281;-74
2022/01/16 09:58:20;;;;;;;61.45;27.60;;;;;;;5.48;100.00;102044.31;5065033;28;20062;-77
2022/01/16 10:00:48;;;;;;;51.90;21.10;;;;;;;5.43;100.00;102035.47;5063959;28;20049;-75
2022/01/16 10:03:46;;;;;;;60.85;30.25;;;;;;;5.46;100.00;102043.84;5068760;28;20051;-74
2022/01/16 10:06:17;;;;;;;74.22;34.95;;;;;;;5.57;100.00;102030.53;5067135;28;20044;-75
2022/01/16 10:08:45;;;;;;;43.33;21.23;;;;;;;5.52;100.00;102033.47;5056062;28;20151;-75
2022/01/16 10:11:22;;;;;;;36.45;18.17;;;;;;;5.63;100.00;102042.94;5065058;28;20055;-75
2022/01/16 10:16:43;;;;;;;47.22;21.02;;;;;;;5.62;100.00;102044.88;5062227;28;20071;-76
2022/01/16 10:19:22;;;;;;;53.00;24.85;;;;;;;5.62;100.00;102046.81;5065826;28;20087;-76
2022/01/16 10:21:50;;;;;;;17.40;8.48;;;;;;;5.72;100.00;102043.69;5067414;28;20404;-74
2022/01/16 10:24:18;;;;;;;35.22;17.08;;;;;;;5.66;100.00;102037.59;5063385;28;20060;-74
2022/01/16 10:26:45;;;;;;;43.78;19.25;;;;;;;5.67;100.00;102035.66;5062029;28;20497;-76
2022/01/16 10:29:20;;;;;;;48.95;22.92;;;;;;;5.77;100.00;102047.03;5064835;28;20420;-74
2022/01/16 10:31:49;;;;;;;46.45;18.48;;;;;;;5.80;100.00;102040.88;5066526;28;20045;-74
2022/01/16 10:34:25;;;;;;;26.40;13.73;;;;;;;5.82;100.00;102029.59;5063735;28;20102;-74
2022/01/16 10:36:52;;;;;;;76.97;31.77;;;;;;;5.97;100.00;102040.78;5062683;28;20056;-74
2022/01/16 10:39:19;;;;;;;65.15;31.00;;;;;;;5.99;100.00;102044.03;5065274;28;20087;-75
2022/01/16 10:41:46;;;;;;;70.07;31.33;;;;;;;5.99;100.00;102038.53;5066662;28;20052;-74
2022/01/16 10:44:38;;;;;;;34.13;12.65;;;;;;;5.93;100.00;102039.84;5071150;28;20059;-75
2022/01/16 10:47:41;;;;;;;61.97;28.73;;;;;;;6.03;100.00;102044.13;5070263;28;20080;-74
2022/01/16 10:50:08;;;;;;;39.90;20.20;;;;;;;6.06;100.00;102048.97;5066569;28;20075;-73
2022/01/16 10:52:56;;;;;;;64.43;28.92;;;;;;;6.12;100.00;102056.69;5067199;28;20501;-75
2022/01/16 10:55:33;;;;;;;43.53;20.05;;;;;;;6.12;100.00;102061.38;5067894;28;20052;-73
2022/01/16 10:58:08;;;;;;;52.15;23.67;;;;;;;6.19;100.00;102058.91;5071591;28;20080;-75
2022/01/16 11:00:36;;;;;;;43.22;19.15;;;;;;;6.11;100.00;102057.81;5079725;28;20105;-75
2022/01/16 11:03:05;;;;;;;27.02;12.35;;;;;;;6.17;100.00;102067.47;5058527;28;20052;-75
2022/01/16 11:05:35;;;;;;;45.15;20.55;;;;;;;6.09;100.00;102062.88;5062080;28;20058;-72
2022/01/16 11:08:05;;;;;;;45.78;22.58;;;;;;;6.19;100.00;102069.91;5061042;28;21546;-75
2022/01/16 11:10:43;;;;;;;58.15;28.55;;;;;;;6.20;100.00;102071.50;5065691;28;20143;-73
2022/01/16 11:13:18;;;;;;;51.47;23.02;;;;;;;6.20;100.00;102066.81;5058589;28;20521;-74
2022/01/16 11:15:56;;;;;;;32.42;16.25;;;;;;;6.13;100.00;102072.03;5058202;28;20519;-72
2022/01/16 11:18:24;;;;;;;49.55;21.40;;;;;;;6.11;100.00;102085.28;5060909;28;20440;-72
2022/01/16 11:21:42;;;;;;;55.20;25.55;;;;;;;6.12;100.00;102086.13;5059665;28;20114;-74
2022/01/16 11:26:22;;;;;;;37.50;17.60;;;;;;;6.19;100.00;102081.69;5059633;28;20515;-73
2022/01/16 11:28:53;;;;;;;34.38;17.25;;;;;;;6.17;100.00;102078.47;5060594;28;20067;-73
2022/01/16 11:31:21;;;;;;;25.63;12.07;;;;;;;6.22;100.00;102075.53;5060737;28;20055;-74
2022/01/16 11:33:48;;;;;;;48.15;20.05;;;;;;;6.27;100.00;102071.75;5061876;28;20722;-74
2022/01/16 11:36:20;;;;;;;35.80;14.48;;;;;;;6.24;100.00;102086.19;5060937;28;20056;-74
2022/01/16 11:38:53;;;;;;;50.75;24.55;;;;;;;6.31;100.00;102081.75;5068895;28;20432;-73
2022/01/16 11:41:25;;;;;;;35.20;12.73;;;;;;;6.18;100.00;102082.03;5062304;28;20052;-75
2022/01/16 11:43:53;;;;;;;41.17;17.23;;;;;;;6.22;100.00;102086.53;5062825;28;20548;-73
2022/01/16 11:46:24;;;;;;;36.75;17.48;;;;;;;6.19;100.00;102092.69;5069364;28;20424;-73
2022/01/16 11:49:02;;;;;;;59.78;27.00;;;;;;;6.32;100.00;102085.31;5069666;28;20091;-73
2022/01/16 11:51:32;;;;;;;50.70;23.48;;;;;;;6.18;100.00;102082.03;5056201;28;20049;-72
2022/01/16 11:54:05;;;;;;;20.75;10.48;;;;;;;6.26;100.00;102090.22;5065490;28;20044;-74
2022/01/16 11:56:37;;;;;;;52.08;23.63;;;;;;;6.31;100.00;102084.50;5068303;28;20110;-72
2022/01/16 11:59:10;;;;;;;58.63;26.95;;;;;;;6.20;100.00;102085.22;5067557;28;20055;-72
2022/01/16 12:01:42;;;;;;;52.20;20.42;;;;;;;6.20;100.00;102085.22;5067731;28;20145;-73
2022/01/16 12:04:28;;;;;;;41.22;20.55;;;;;;;6.33;100.00;102087.72;5062459;28;20513;-75